Terminal Aerodrome Forecast
Issued by NWS

Home | Current Version | Previous Version | Text Only | Print | Product List | Glossary On
Versions: 1 2 3 4 5 6 7 8 9 10 11 12 13 14 15
000
FTAK31 PAJN 242300
TAFAJN
TAF
PAJN 242329Z 2500/2524 25005KT P6SM -SHRA FEW012 BKN045 OVC060
     FM250200 10008KT P6SM VCSH FEW015 OVC040
     FM250600 08004KT 6SM -SHRA FEW010 SCT020 OVC030
     FM251800 10010G20KT 6SM -RA BR SCT010 OVC025=

USA.gov is the U.S. government's official web portal to all federal, state and local government web resources and services.